sensor_id;sensor_type;location;lat;lon;timestamp;pressure;altitude;pressure_sealevel;temperature;humidity
37972;BME280;23794;48.234;8.344;2023-09-12T00:00:46;94117.06;;;16.64;74.54
37972;BME280;23794;48.234;8.344;2023-09-12T00:03:14;94111.00;;;16.56;75.09
37972;BME280;23794;48.234;8.344;2023-09-12T00:05:41;94109.88;;;16.54;75.66
37972;BME280;23794;48.234;8.344;2023-09-12T00:08:08;94112.31;;;16.52;75.39
37972;BME280;23794;48.234;8.344;2023-09-12T00:10:34;94109.09;;;16.53;75.17
37972;BME280;23794;48.234;8.344;2023-09-12T00:13:01;94098.50;;;16.52;75.55
37972;BME280;23794;48.234;8.344;2023-09-12T00:15:29;94099.59;;;16.54;74.55
37972;BME280;23794;48.234;8.344;2023-09-12T00:17:56;94095.38;;;16.50;74.94
37972;BME280;23794;48.234;8.344;2023-09-12T00:20:23;94092.41;;;16.44;75.65
37972;BME280;23794;48.234;8.344;2023-09-12T00:22:49;94099.94;;;16.43;75.88
37972;BME280;23794;48.234;8.344;2023-09-12T00:25:16;94095.94;;;16.45;75.70
37972;BME280;23794;48.234;8.344;2023-09-12T00:27:43;94091.50;;;16.34;75.41
37972;BME280;23794;48.234;8.344;2023-09-12T00:30:10;94085.44;;;16.26;76.05
37972;BME280;23794;48.234;8.344;2023-09-12T00:32:37;94087.88;;;16.24;76.21
37972;BME280;23794;48.234;8.344;2023-09-12T00:35:04;94082.00;;;16.22;76.11
37972;BME280;23794;48.234;8.344;2023-09-12T00:37:30;94089.53;;;16.22;76.19
37972;BME280;23794;48.234;8.344;2023-09-12T00:39:57;94085.31;;;16.17;76.70
37972;BME280;23794;48.234;8.344;2023-09-12T00:42:27;94090.38;;;16.19;76.41
37972;BME280;23794;48.234;8.344;2023-09-12T00:44:53;94090.72;;;16.21;75.52
37972;BME280;23794;48.234;8.344;2023-09-12T00:47:20;94083.88;;;16.13;76.30
37972;BME280;23794;48.234;8.344;2023-09-12T00:49:49;94089.09;;;16.10;76.51
37972;BME280;23794;48.234;8.344;2023-09-12T00:52:23;94087.63;;;16.06;76.57
37972;BME280;23794;48.234;8.344;2023-09-12T00:54:51;94081.75;;;16.04;76.78
37972;BME280;23794;48.234;8.344;2023-09-12T00:57:19;94077.09;;;16.01;76.42
37972;BME280;23794;48.234;8.344;2023-09-12T00:59:51;94082.63;;;16.01;77.19
37972;BME280;23794;48.234;8.344;2023-09-12T01:02:20;94081.09;;;16.00;77.01
37972;BME280;23794;48.234;8.344;2023-09-12T01:04:48;94079.09;;;16.00;76.82
37972;BME280;23794;48.234;8.344;2023-09-12T01:07:15;94084.19;;;16.02;76.65
37972;BME280;23794;48.234;8.344;2023-09-12T01:09:42;94087.94;;;15.95;76.86
37972;BME280;23794;48.234;8.344;2023-09-12T01:12:09;94092.69;;;15.94;76.64
37972;BME280;23794;48.234;8.344;2023-09-12T01:14:41;94080.75;;;15.98;76.09
37972;BME280;23794;48.234;8.344;2023-09-12T01:17:07;94084.47;;;15.91;77.47
37972;BME280;23794;48.234;8.344;2023-09-12T01:19:34;94079.50;;;15.86;76.87
37972;BME280;23794;48.234;8.344;2023-09-12T01:24:55;94086.66;;;15.83;77.69
37972;BME280;23794;48.234;8.344;2023-09-12T01:27:34;94074.06;;;15.82;77.27
37972;BME280;23794;48.234;8.344;2023-09-12T01:30:04;94067.75;;;15.82;77.54
37972;BME280;23794;48.234;8.344;2023-09-12T01:32:32;94079.59;;;15.82;77.58
37972;BME280;23794;48.234;8.344;2023-09-12T01:34:59;94076.16;;;15.78;77.46
37972;BME280;23794;48.234;8.344;2023-09-12T01:37:26;94084.44;;;15.78;77.76
37972;BME280;23794;48.234;8.344;2023-09-12T01:39:53;94086.44;;;15.77;76.90
37972;BME280;23794;48.234;8.344;2023-09-12T01:42:20;94076.59;;;15.76;76.75
37972;BME280;23794;48.234;8.344;2023-09-12T01:44:50;94080.00;;;15.68;77.72
37972;BME280;23794;48.234;8.344;2023-09-12T01:47:17;94078.09;;;15.64;77.88
37972;BME280;23794;48.234;8.344;2023-09-12T01:49:49;94088.38;;;15.64;77.82
37972;BME280;23794;48.234;8.344;2023-09-12T01:52:18;94084.72;;;15.67;77.08
37972;BME280;23794;48.234;8.344;2023-09-12T01:54:47;94075.34;;;15.64;77.66
37972;BME280;23794;48.234;8.344;2023-09-12T01:57:14;94074.78;;;15.57;78.07
37972;BME280;23794;48.234;8.344;2023-09-12T01:59:42;94093.22;;;15.60;77.97
37972;BME280;23794;48.234;8.344;2023-09-12T02:02:08;94088.13;;;15.58;78.32
37972;BME280;23794;48.234;8.344;2023-09-12T02:04:35;94080.88;;;15.64;77.83
37972;BME280;23794;48.234;8.344;2023-09-12T02:07:02;94081.41;;;15.59;78.13
37972;BME280;23794;48.234;8.344;2023-09-12T02:09:28;94083.47;;;15.55;78.26
37972;BME280;23794;48.234;8.344;2023-09-12T02:11:55;94087.22;;;15.48;78.72
37972;BME280;23794;48.234;8.344;2023-09-12T02:14:22;94083.56;;;15.52;78.37
37972;BME280;23794;48.234;8.344;2023-09-12T02:16:48;94083.38;;;15.59;77.91
37972;BME280;23794;48.234;8.344;2023-09-12T02:19:19;94074.25;;;15.62;77.93
37972;BME280;23794;48.234;8.344;2023-09-12T02:21:46;94073.47;;;15.61;78.08
37972;BME280;23794;48.234;8.344;2023-09-12T02:24:12;94073.47;;;15.61;78.18
37972;BME280;23794;48.234;8.344;2023-09-12T02:26:39;94070.63;;;15.65;77.27
37972;BME280;23794;48.234;8.344;2023-09-12T02:29:06;94068.16;;;15.67;77.27
37972;BME280;23794;48.234;8.344;2023-09-12T02:31:34;94073.59;;;15.71;77.64
37972;BME280;23794;48.234;8.344;2023-09-12T02:34:00;94077.81;;;15.75;77.97
37972;BME280;23794;48.234;8.344;2023-09-12T02:36:28;94078.16;;;15.77;77.38
37972;BME280;23794;48.234;8.344;2023-09-12T02:38:54;94075.38;;;15.77;77.25
37972;BME280;23794;48.234;8.344;2023-09-12T02:41:21;94065.00;;;15.82;77.44
37972;BME280;23794;48.234;8.344;2023-09-12T02:43:48;94069.31;;;15.83;77.68
37972;BME280;23794;48.234;8.344;2023-09-12T02:46:14;94064.47;;;15.87;77.44
37972;BME280;23794;48.234;8.344;2023-09-12T02:48:41;94069.66;;;15.85;77.59
37972;BME280;23794;48.234;8.344;2023-09-12T02:51:08;94071.56;;;15.88;77.49
37972;BME280;23794;48.234;8.344;2023-09-12T02:53:35;94065.59;;;15.89;77.28
37972;BME280;23794;48.234;8.344;2023-09-12T02:56:02;94064.03;;;15.88;77.32
37972;BME280;23794;48.234;8.344;2023-09-12T02:58:28;94061.72;;;15.87;77.17
37972;BME280;23794;48.234;8.344;2023-09-12T03:00:55;94065.13;;;15.91;76.93
37972;BME280;23794;48.234;8.344;2023-09-12T03:03:22;94069.09;;;15.90;76.66
37972;BME280;23794;48.234;8.344;2023-09-12T03:05:57;94072.88;;;15.83;77.52
37972;BME280;23794;48.234;8.344;2023-09-12T03:08:24;94072.97;;;15.79;77.89
37972;BME280;23794;48.234;8.344;2023-09-12T03:10:55;94064.25;;;15.81;77.32
37972;BME280;23794;48.234;8.344;2023-09-12T03:13:24;94067.91;;;15.91;77.02
37972;BME280;23794;48.234;8.344;2023-09-12T03:15:52;94073.06;;;15.89;77.09
37972;BME280;23794;48.234;8.344;2023-09-12T03:18:19;94061.81;;;15.83;77.27
37972;BME280;23794;48.234;8.344;2023-09-12T03:20:46;94065.44;;;15.80;77.57
37972;BME280;23794;48.234;8.344;2023-09-12T03:23:12;94062.53;;;15.71;78.09
37972;BME280;23794;48.234;8.344;2023-09-12T03:25:39;94058.56;;;15.72;77.57
37972;BME280;23794;48.234;8.344;2023-09-12T03:28:06;94058.03;;;15.77;77.51
37972;BME280;23794;48.234;8.344;2023-09-12T03:30:34;94052.72;;;15.70;77.41
37972;BME280;23794;48.234;8.344;2023-09-12T03:33:02;94049.53;;;15.71;77.64
37972;BME280;23794;48.234;8.344;2023-09-12T03:35:32;94052.28;;;15.71;77.70
37972;BME280;23794;48.234;8.344;2023-09-12T03:38:00;94042.69;;;15.76;77.16
37972;BME280;23794;48.234;8.344;2023-09-12T03:40:30;94042.91;;;15.82;76.69
37972;BME280;23794;48.234;8.344;2023-09-12T03:42:57;94048.09;;;15.67;77.25
37972;BME280;23794;48.234;8.344;2023-09-12T03:45:25;94041.56;;;15.60;78.02
37972;BME280;23794;48.234;8.344;2023-09-12T03:47:52;94041.56;;;15.60;78.12
37972;BME280;23794;48.234;8.344;2023-09-12T03:50:19;94030.41;;;15.64;77.38
37972;BME280;23794;48.234;8.344;2023-09-12T03:52:46;94035.59;;;15.62;76.96
37972;BME280;23794;48.234;8.344;2023-09-12T03:55:12;94040.09;;;15.56;78.41
37972;BME280;23794;48.234;8.344;2023-09-12T03:57:39;94035.34;;;15.56;78.05
37972;BME280;23794;48.234;8.344;2023-09-12T04:00:06;94040.56;;;15.67;76.71
37972;BME280;23794;48.234;8.344;2023-09-12T04:02:39;94039.25;;;15.72;77.01
37972;BME280;23794;48.234;8.344;2023-09-12T04:05:06;94040.56;;;15.67;77.23
37972;BME280;23794;48.234;8.344;2023-09-12T04:07:33;94029.09;;;15.69;78.00
37972;BME280;23794;48.234;8.344;2023-09-12T04:10:00;94029.09;;;15.69;77.40
37972;BME280;23794;48.234;8.344;2023-09-12T04:12:26;94035.47;;;15.66;77.82
37972;BME280;23794;48.234;8.344;2023-09-12T04:14:53;94029.72;;;15.60;78.01
37972;BME280;23794;48.234;8.344;2023-09-12T04:17:25;94035.94;;;15.64;77.51
37972;BME280;23794;48.234;8.344;2023-09-12T04:19:52;94034.47;;;15.59;77.73
37972;BME280;23794;48.234;8.344;2023-09-12T04:22:19;94028.97;;;15.59;77.95
37972;BME280;23794;48.234;8.344;2023-09-12T04:24:49;94034.38;;;15.63;78.06
37972;BME280;23794;48.234;8.344;2023-09-12T04:27:16;94022.88;;;15.64;77.40
37972;BME280;23794;48.234;8.344;2023-09-12T04:29:42;94032.47;;;15.60;78.08
37972;BME280;23794;48.234;8.344;2023-09-12T04:32:09;94030.63;;;15.57;78.05
37972;BME280;23794;48.234;8.344;2023-09-12T04:34:36;94034.25;;;15.54;77.54
37972;BME280;23794;48.234;8.344;2023-09-12T04:37:03;94030.63;;;15.57;77.62
37972;BME280;23794;48.234;8.344;2023-09-12T04:39:33;94032.88;;;15.45;78.22
37972;BME280;23794;48.234;8.344;2023-09-12T04:42:01;94034.63;;;15.39;78.23
37972;BME280;23794;48.234;8.344;2023-09-12T04:44:41;94038.06;;;15.43;78.17
37972;BME280;23794;48.234;8.344;2023-09-12T04:47:08;94031.25;;;15.48;77.26
37972;BME280;23794;48.234;8.344;2023-09-12T04:49:36;94039.09;;;15.50;77.95
37972;BME280;23794;48.234;8.344;2023-09-12T04:52:03;94039.75;;;15.54;78.49
37972;BME280;23794;48.234;8.344;2023-09-12T04:54:29;94039.56;;;15.61;77.17
37972;BME280;23794;48.234;8.344;2023-09-12T04:56:56;94034.81;;;15.61;77.00
37972;BME280;23794;48.234;8.344;2023-09-12T04:59:27;94037.34;;;15.56;77.22
37972;BME280;23794;48.234;8.344;2023-09-12T05:01:54;94036.34;;;15.50;77.94
37972;BME280;23794;48.234;8.344;2023-09-12T05:04:21;94030.03;;;15.49;77.73
37972;BME280;23794;48.234;8.344;2023-09-12T05:06:48;94032.69;;;15.53;77.24
37972;BME280;23794;48.234;8.344;2023-09-12T05:09:15;94034.25;;;15.54;77.43
37972;BME280;23794;48.234;8.344;2023-09-12T05:11:42;94045.94;;;15.58;78.30
37972;BME280;23794;48.234;8.344;2023-09-12T05:14:09;94046.97;;;15.64;77.67
37972;BME280;23794;48.234;8.344;2023-09-12T05:16:35;94044.03;;;15.84;76.82
37972;BME280;23794;48.234;8.344;2023-09-12T05:19:02;94038.22;;;15.95;76.27
37972;BME280;23794;48.234;8.344;2023-09-12T05:21:30;94039.22;;;16.01;77.18
37972;BME280;23794;48.234;8.344;2023-09-12T05:23:57;94045.41;;;16.05;77.04
37972;BME280;23794;48.234;8.344;2023-09-12T05:26:24;94044.66;;;16.18;76.66
37972;BME280;23794;48.234;8.344;2023-09-12T05:28:52;94044.88;;;16.23;76.46
37972;BME280;23794;48.234;8.344;2023-09-12T05:31:19;94049.94;;;16.38;76.37
37972;BME280;23794;48.234;8.344;2023-09-12T05:33:46;94050.06;;;16.47;75.79
37972;BME280;23794;48.234;8.344;2023-09-12T05:36:13;94048.38;;;16.63;74.90
37972;BME280;23794;48.234;8.344;2023-09-12T05:38:39;94051.16;;;16.63;75.59
37972;BME280;23794;48.234;8.344;2023-09-12T05:41:07;94064.09;;;16.79;75.14
37972;BME280;23794;48.234;8.344;2023-09-12T05:43:33;94061.28;;;16.92;74.65
37972;BME280;23794;48.234;8.344;2023-09-12T05:46:02;94063.06;;;16.98;74.05
37972;BME280;23794;48.234;8.344;2023-09-12T05:48:29;94072.25;;;16.95;74.34
37972;BME280;23794;48.234;8.344;2023-09-12T05:50:56;94082.44;;;16.98;74.71
37972;BME280;23794;48.234;8.344;2023-09-12T05:53:23;94077.00;;;17.08;74.00
37972;BME280;23794;48.234;8.344;2023-09-12T05:55:50;94074.00;;;17.15;74.02
37972;BME280;23794;48.234;8.344;2023-09-12T05:58:17;94079.41;;;17.18;74.18
37972;BME280;23794;48.234;8.344;2023-09-12T06:00:44;94079.28;;;17.22;73.59
37972;BME280;23794;48.234;8.344;2023-09-12T06:03:15;94070.41;;;17.27;74.30
37972;BME280;23794;48.234;8.344;2023-09-12T06:05:43;94073.88;;;17.18;74.65
37972;BME280;23794;48.234;8.344;2023-09-12T06:08:10;94074.84;;;17.25;74.18
37972;BME280;23794;48.234;8.344;2023-09-12T06:10:37;94084.28;;;17.14;74.53
37972;BME280;23794;48.234;8.344;2023-09-12T06:13:03;94089.81;;;17.14;74.23
37972;BME280;23794;48.234;8.344;2023-09-12T06:15:30;94095.38;;;17.01;74.93
37972;BME280;23794;48.234;8.344;2023-09-12T06:17:57;94101.44;;;17.09;74.66
37972;BME280;23794;48.234;8.344;2023-09-12T06:20:24;94099.03;;;17.11;74.80
37972;BME280;23794;48.234;8.344;2023-09-12T06:22:50;94104.69;;;17.08;75.01
37972;BME280;23794;48.234;8.344;2023-09-12T06:25:17;94106.53;;;17.11;76.02
37972;BME280;23794;48.234;8.344;2023-09-12T06:27:44;94105.88;;;17.19;75.87
37972;BME280;23794;48.234;8.344;2023-09-12T06:30:11;94102.06;;;17.26;75.40
37972;BME280;23794;48.234;8.344;2023-09-12T06:32:38;94103.75;;;17.24;75.25
37972;BME280;23794;48.234;8.344;2023-09-12T06:35:05;94103.28;;;17.25;74.96
37972;BME280;23794;48.234;8.344;2023-09-12T06:37:39;94096.94;;;17.37;74.52
37972;BME280;23794;48.234;8.344;2023-09-12T06:40:07;94096.94;;;17.37;74.93
37972;BME280;23794;48.234;8.344;2023-09-12T06:42:34;94092.13;;;17.51;74.46
37972;BME280;23794;48.234;8.344;2023-09-12T06:45:03;94096.22;;;17.59;74.80
37972;BME280;23794;48.234;8.344;2023-09-12T06:47:29;94091.03;;;17.71;74.72
37972;BME280;23794;48.234;8.344;2023-09-12T06:49:56;94099.75;;;17.82;74.86
37972;BME280;23794;48.234;8.344;2023-09-12T06:52:23;94093.06;;;17.92;73.85
37972;BME280;23794;48.234;8.344;2023-09-12T06:54:49;94092.63;;;17.94;73.60
37972;BME280;23794;48.234;8.344;2023-09-12T06:57:16;94098.25;;;18.03;73.40
37972;BME280;23794;48.234;8.344;2023-09-12T06:59:43;94091.69;;;18.19;72.49
37972;BME280;23794;48.234;8.344;2023-09-12T07:02:14;94091.16;;;18.34;72.01
37972;BME280;23794;48.234;8.344;2023-09-12T07:04:43;94089.72;;;18.51;71.45
37972;BME280;23794;48.234;8.344;2023-09-12T07:07:10;94084.31;;;18.57;72.37
37972;BME280;23794;48.234;8.344;2023-09-12T07:09:37;94080.22;;;18.71;70.90
37972;BME280;23794;48.234;8.344;2023-09-12T07:12:04;94092.78;;;18.85;70.97
37972;BME280;23794;48.234;8.344;2023-09-12T07:14:32;94084.34;;;18.98;69.91
37972;BME280;23794;48.234;8.344;2023-09-12T07:17:05;94079.88;;;19.09;70.22
37972;BME280;23794;48.234;8.344;2023-09-12T07:19:32;94090.09;;;19.22;70.34
37972;BME280;23794;48.234;8.344;2023-09-12T07:21:59;94086.09;;;19.23;70.38
37972;BME280;23794;48.234;8.344;2023-09-12T07:24:26;94098.91;;;19.39;70.60
37972;BME280;23794;48.234;8.344;2023-09-12T07:26:53;94098.91;;;19.57;68.89
37972;BME280;23794;48.234;8.344;2023-09-12T07:29:20;94096.63;;;19.74;67.89
37972;BME280;23794;48.234;8.344;2023-09-12T07:31:46;94100.00;;;19.79;66.39
37972;BME280;23794;48.234;8.344;2023-09-12T07:34:13;94092.00;;;19.81;66.38
37972;BME280;23794;48.234;8.344;2023-09-12T07:36:41;94098.31;;;19.90;66.45
37972;BME280;23794;48.234;8.344;2023-09-12T07:39:08;94091.81;;;20.03;67.55
37972;BME280;23794;48.234;8.344;2023-09-12T07:41:34;94094.88;;;20.24;67.04
37972;BME280;23794;48.234;8.344;2023-09-12T07:44:02;94097.13;;;20.44;66.42
37972;BME280;23794;48.234;8.344;2023-09-12T07:46:31;94094.00;;;20.60;65.32
37972;BME280;23794;48.234;8.344;2023-09-12T07:48:58;94097.81;;;20.72;65.33
37972;BME280;23794;48.234;8.344;2023-09-12T07:51:25;94100.22;;;20.89;65.70
37972;BME280;23794;48.234;8.344;2023-09-12T07:53:57;94093.59;;;21.10;64.96
37972;BME280;23794;48.234;8.344;2023-09-12T07:56:29;94098.75;;;21.27;64.08
37972;BME280;23794;48.234;8.344;2023-09-12T07:58:57;94106.75;;;21.43;63.26
37972;BME280;23794;48.234;8.344;2023-09-12T08:01:24;94101.31;;;21.64;63.62
37972;BME280;23794;48.234;8.344;2023-09-12T08:03:51;94102.25;;;21.85;63.17
37972;BME280;23794;48.234;8.344;2023-09-12T08:06:18;94101.97;;;22.13;62.28
37972;BME280;23794;48.234;8.344;2023-09-12T08:08:45;94103.09;;;22.31;62.48
37972;BME280;23794;48.234;8.344;2023-09-12T08:11:12;94107.63;;;22.28;62.29
37972;BME280;23794;48.234;8.344;2023-09-12T08:13:38;94103.97;;;22.22;61.10
37972;BME280;23794;48.234;8.344;2023-09-12T08:16:05;94096.72;;;22.30;61.11
37972;BME280;23794;48.234;8.344;2023-09-12T08:18:32;94096.03;;;22.50;61.31
37972;BME280;23794;48.234;8.344;2023-09-12T08:20:59;94094.78;;;22.66;60.31
37972;BME280;23794;48.234;8.344;2023-09-12T08:23:25;94090.72;;;22.82;60.26
37972;BME280;23794;48.234;8.344;2023-09-12T08:25:52;94092.69;;;23.12;59.75
37972;BME280;23794;48.234;8.344;2023-09-12T08:28:19;94078.34;;;23.40;58.31
37972;BME280;23794;48.234;8.344;2023-09-12T08:30:46;94076.47;;;23.72;57.89
37972;BME280;23794;48.234;8.344;2023-09-12T08:33:13;94080.50;;;23.71;55.85
37972;BME280;23794;48.234;8.344;2023-09-12T08:35:39;94086.78;;;23.45;56.59
37972;BME280;23794;48.234;8.344;2023-09-12T08:38:06;94090.06;;;23.44;57.66
37972;BME280;23794;48.234;8.344;2023-09-12T08:40:33;94081.91;;;23.61;56.78
37972;BME280;23794;48.234;8.344;2023-09-12T08:43:02;94074.00;;;23.80;55.22
37972;BME280;23794;48.234;8.344;2023-09-12T08:45:31;94080.38;;;23.80;54.75
37972;BME280;23794;48.234;8.344;2023-09-12T08:48:00;94078.00;;;23.73;54.57
37972;BME280;23794;48.234;8.344;2023-09-12T08:50:27;94077.50;;;23.75;55.74
37972;BME280;23794;48.234;8.344;2023-09-12T08:52:57;94079.44;;;23.89;55.61
37972;BME280;23794;48.234;8.344;2023-09-12T08:55:34;94082.50;;;23.91;56.61
37972;BME280;23794;48.234;8.344;2023-09-12T08:58:05;94082.13;;;23.78;56.42
37972;BME280;23794;48.234;8.344;2023-09-12T09:00:32;94078.75;;;23.94;55.97
37972;BME280;23794;48.234;8.344;2023-09-12T09:03:00;94088.63;;;24.16;55.60
37972;BME280;23794;48.234;8.344;2023-09-12T09:05:28;94080.38;;;24.33;53.41
37972;BME280;23794;48.234;8.344;2023-09-12T09:07:55;94086.16;;;24.50;53.70
37972;BME280;23794;48.234;8.344;2023-09-12T09:10:23;94089.06;;;24.61;53.29
37972;BME280;23794;48.234;8.344;2023-09-12T09:13:12;94086.84;;;24.71;51.48
37972;BME280;23794;48.234;8.344;2023-09-12T09:15:39;94095.34;;;24.83;51.03
37972;BME280;23794;48.234;8.344;2023-09-12T09:18:09;94087.75;;;24.94;50.93
37972;BME280;23794;48.234;8.344;2023-09-12T09:20:38;94082.25;;;25.06;48.83
37972;BME280;23794;48.234;8.344;2023-09-12T09:23:08;94092.25;;;25.18;47.97
37972;BME280;23794;48.234;8.344;2023-09-12T09:25:42;94083.94;;;25.30;46.85
37972;BME280;23794;48.234;8.344;2023-09-12T09:28:18;94082.47;;;25.46;46.38
37972;BME280;23794;48.234;8.344;2023-09-12T09:30:47;94075.44;;;25.62;47.35
37972;BME280;23794;48.234;8.344;2023-09-12T09:33:15;94073.91;;;25.72;46.73
37972;BME280;23794;48.234;8.344;2023-09-12T09:35:43;94072.97;;;25.81;46.34
37972;BME280;23794;48.234;8.344;2023-09-12T09:38:11;94074.53;;;25.93;46.24
37972;BME280;23794;48.234;8.344;2023-09-12T09:40:43;94070.50;;;26.17;46.41
37972;BME280;23794;48.234;8.344;2023-09-12T09:43:11;94065.94;;;26.36;45.67
37972;BME280;23794;48.234;8.344;2023-09-12T09:45:45;94059.84;;;26.55;45.93
37972;BME280;23794;48.234;8.344;2023-09-12T09:48:20;94064.19;;;26.62;44.20
37972;BME280;23794;48.234;8.344;2023-09-12T09:50:47;94062.13;;;26.85;44.67
37972;BME280;23794;48.234;8.344;2023-09-12T09:53:14;94050.63;;;27.11;44.08
37972;BME280;23794;48.234;8.344;2023-09-12T09:55:41;94057.22;;;27.25;43.56
37972;BME280;23794;48.234;8.344;2023-09-12T09:58:14;94055.13;;;27.37;42.83
37972;BME280;23794;48.234;8.344;2023-09-12T10:00:43;94050.78;;;27.42;43.53
37972;BME280;23794;48.234;8.344;2023-09-12T10:03:12;94049.19;;;27.58;42.25
37972;BME280;23794;48.234;8.344;2023-09-12T10:05:40;94043.28;;;27.73;42.71
37972;BME280;23794;48.234;8.344;2023-09-12T10:08:10;94033.97;;;27.89;42.40
37972;BME280;23794;48.234;8.344;2023-09-12T10:10:38;94036.94;;;28.08;42.09
37972;BME280;23794;48.234;8.344;2023-09-12T10:13:06;94040.63;;;28.28;42.69
37972;BME280;23794;48.234;8.344;2023-09-12T10:15:35;94040.38;;;28.32;42.56
37972;BME280;23794;48.234;8.344;2023-09-12T10:18:09;94044.38;;;28.48;42.64
37972;BME280;23794;48.234;8.344;2023-09-12T10:20:48;94042.38;;;28.73;40.66
37972;BME280;23794;48.234;8.344;2023-09-12T10:23:45;94049.44;;;28.85;41.59
37972;BME280;23794;48.234;8.344;2023-09-12T10:26:13;94046.00;;;28.68;40.75
37972;BME280;23794;48.234;8.344;2023-09-12T10:28:41;94050.41;;;28.63;39.84
37972;BME280;23794;48.234;8.344;2023-09-12T10:31:12;94045.91;;;28.79;39.83
37972;BME280;23794;48.234;8.344;2023-09-12T10:33:39;94048.84;;;28.98;38.35
37972;BME280;23794;48.234;8.344;2023-09-12T10:36:08;94044.69;;;29.05;36.85
37972;BME280;23794;48.234;8.344;2023-09-12T10:38:47;94040.31;;;29.04;35.88
37972;BME280;23794;48.234;8.344;2023-09-12T10:41:15;94041.91;;;28.99;35.23
37972;BME280;23794;48.234;8.344;2023-09-12T10:43:44;94038.81;;;29.03;36.32
37972;BME280;23794;48.234;8.344;2023-09-12T10:46:16;94037.56;;;28.98;34.76
37972;BME280;23794;48.234;8.344;2023-09-12T10:48:43;94032.16;;;29.00;34.36
37972;BME280;23794;48.234;8.344;2023-09-12T10:51:11;94034.00;;;28.98;32.33
37972;BME280;23794;48.234;8.344;2023-09-12T10:53:45;94038.91;;;28.61;32.17
37972;BME280;23794;48.234;8.344;2023-09-12T11:01:43;94027.00;;;29.04;31.68
37972;BME280;23794;48.234;8.344;2023-09-12T11:06:50;94018.19;;;29.14;29.65
37972;BME280;23794;48.234;8.344;2023-09-12T11:09:20;94026.09;;;29.40;31.10
37972;BME280;23794;48.234;8.344;2023-09-12T11:11:49;94022.34;;;29.57;30.21
37972;BME280;23794;48.234;8.344;2023-09-12T11:14:21;94020.09;;;29.49;28.09
37972;BME280;23794;48.234;8.344;2023-09-12T11:19:44;94018.03;;;29.50;29.22
37972;BME280;23794;48.234;8.344;2023-09-12T11:22:27;94018.22;;;29.58;27.11
37972;BME280;23794;48.234;8.344;2023-09-12T11:24:55;94016.78;;;29.70;28.00
37972;BME280;23794;48.234;8.344;2023-09-12T11:27:32;94018.13;;;29.63;26.72
37972;BME280;23794;48.234;8.344;2023-09-12T11:30:06;94012.06;;;29.78;27.59
37972;BME280;23794;48.234;8.344;2023-09-12T11:32:35;94016.03;;;29.89;27.75
37972;BME280;23794;48.234;8.344;2023-09-12T11:35:07;94010.22;;;29.62;27.53
37972;BME280;23794;48.234;8.344;2023-09-12T11:37:34;94015.81;;;29.87;26.99
37972;BME280;23794;48.234;8.344;2023-09-12T11:42:40;94012.13;;;29.92;25.62
37972;BME280;23794;48.234;8.344;2023-09-12T11:45:09;94014.19;;;29.91;25.87
37972;BME280;23794;48.234;8.344;2023-09-12T11:47:42;94010.91;;;29.87;25.77
37972;BME280;23794;48.234;8.344;2023-09-12T11:50:32;94011.00;;;29.81;26.90
37972;BME280;23794;48.234;8.344;2023-09-12T11:55:26;94013.94;;;30.08;26.40
37972;BME280;23794;48.234;8.344;2023-09-12T11:57:53;94009.56;;;30.13;26.87
37972;BME280;23794;48.234;8.344;2023-09-12T12:00:20;94001.22;;;30.21;25.83
37972;BME280;23794;48.234;8.344;2023-09-12T12:02:47;94009.06;;;30.28;26.00
37972;BME280;23794;48.234;8.344;2023-09-12T12:05:13;94013.34;;;30.35;25.96
37972;BME280;23794;48.234;8.344;2023-09-12T12:07:40;94008.13;;;30.39;26.20
37972;BME280;23794;48.234;8.344;2023-09-12T12:10:09;94006.78;;;30.59;26.21
37972;BME280;23794;48.234;8.344;2023-09-12T12:12:36;94010.38;;;30.59;26.08
37972;BME280;23794;48.234;8.344;2023-09-12T12:15:03;94002.41;;;30.58;26.38
37972;BME280;23794;48.234;8.344;2023-09-12T12:17:32;94008.91;;;30.85;26.71
37972;BME280;23794;48.234;8.344;2023-09-12T12:19:59;94007.41;;;30.84;27.26
37972;BME280;23794;48.234;8.344;2023-09-12T12:22:25;94000.28;;;30.64;26.54
37972;BME280;23794;48.234;8.344;2023-09-12T12:24:52;93999.72;;;30.52;26.62
37972;BME280;23794;48.234;8.344;2023-09-12T12:27:19;93997.38;;;30.70;26.73
37972;BME280;23794;48.234;8.344;2023-09-12T12:29:46;93988.72;;;30.49;26.77
37972;BME280;23794;48.234;8.344;2023-09-12T12:32:15;93991.13;;;30.58;27.02
37972;BME280;23794;48.234;8.344;2023-09-12T12:34:42;94000.50;;;30.66;27.59
37972;BME280;23794;48.234;8.344;2023-09-12T12:37:30;93992.94;;;30.88;27.32
37972;BME280;23794;48.234;8.344;2023-09-12T12:39:58;93985.00;;;31.00;26.56
37972;BME280;23794;48.234;8.344;2023-09-12T12:42:35;93984.63;;;31.22;27.19
37972;BME280;23794;48.234;8.344;2023-09-12T12:45:22;93978.72;;;30.93;26.60
37972;BME280;23794;48.234;8.344;2023-09-12T12:48:00;93984.59;;;30.96;26.35
37972;BME280;23794;48.234;8.344;2023-09-12T12:50:27;93984.47;;;30.88;27.38
37972;BME280;23794;48.234;8.344;2023-09-12T12:52:54;93982.09;;;30.92;27.20
37972;BME280;23794;48.234;8.344;2023-09-12T12:55:21;93974.16;;;30.90;27.21
37972;BME280;23794;48.234;8.344;2023-09-12T12:57:48;93972.84;;;31.05;28.17
37972;BME280;23794;48.234;8.344;2023-09-12T13:00:16;93969.47;;;31.20;26.72
37972;BME280;23794;48.234;8.344;2023-09-12T13:02:45;93965.53;;;30.83;26.74
37972;BME280;23794;48.234;8.344;2023-09-12T13:05:25;93958.28;;;31.01;27.19
37972;BME280;23794;48.234;8.344;2023-09-12T13:07:52;93954.59;;;31.06;27.60
37972;BME280;23794;48.234;8.344;2023-09-12T13:10:20;93950.00;;;31.16;27.41
37972;BME280;23794;48.234;8.344;2023-09-12T13:12:47;93944.34;;;31.30;26.67
37972;BME280;23794;48.234;8.344;2023-09-12T13:15:15;93936.00;;;31.24;26.94
37972;BME280;23794;48.234;8.344;2023-09-12T13:17:43;93936.94;;;31.53;27.01
37972;BME280;23794;48.234;8.344;2023-09-12T13:20:10;93940.19;;;31.58;26.30
37972;BME280;23794;48.234;8.344;2023-09-12T13:22:37;93939.81;;;31.27;26.73
37972;BME280;23794;48.234;8.344;2023-09-12T13:25:08;93927.59;;;31.18;27.08